createdAt,value
2023-02-19T00:01:43.788Z,101854.00
2023-02-19T00:04:29.764Z,101847.75
2023-02-19T00:07:15.714Z,101850.50
2023-02-19T00:10:01.505Z,101849.53
2023-02-19T00:12:47.250Z,101836.19
2023-02-19T00:15:34.372Z,101825.44
2023-02-19T00:18:20.151Z,101828.81
2023-02-19T00:21:06.517Z,101841.94
2023-02-19T00:23:52.847Z,101838.22
2023-02-19T00:26:39.509Z,101839.91
2023-02-19T00:29:25.663Z,101843.50
2023-02-19T00:32:13.214Z,101846.66
2023-02-19T00:34:58.885Z,101845.72
2023-02-19T00:37:44.707Z,101832.25
2023-02-19T00:40:30.589Z,101832.25
2023-02-19T00:43:16.403Z,101835.63
2023-02-19T00:46:02.915Z,101832.06
2023-02-19T00:48:50.559Z,101842.53
2023-02-19T00:51:37.633Z,101853.97
2023-02-19T00:54:24.430Z,101851.34
2023-02-19T00:57:10.203Z,101861.06
2023-02-19T00:59:56.466Z,101862.88
2023-02-19T01:02:42.292Z,101868.19
2023-02-19T01:05:29.410Z,101872.50
2023-02-19T01:08:15.276Z,101872.28
2023-02-19T01:11:02.590Z,101904.06
2023-02-19T01:13:48.801Z,101910.31
2023-02-19T01:16:34.732Z,101903.44
2023-02-19T01:19:20.606Z,101897.31
2023-02-19T01:22:07.626Z,101900.13
2023-02-19T01:24:53.433Z,101898.25
2023-02-19T01:27:39.452Z,101896.03
2023-02-19T01:30:25.186Z,101887.97
2023-02-19T01:33:11.187Z,101891.56
2023-02-19T01:35:58.104Z,101891.78
2023-02-19T01:38:45.536Z,101879.00
2023-02-19T01:41:31.990Z,101876.84
2023-02-19T01:44:36.931Z,101861.09
2023-02-19T01:47:22.979Z,101850.50
2023-02-19T01:50:09.060Z,101854.94
2023-02-19T01:52:55.028Z,101844.59
2023-02-19T01:55:42.201Z,101840.56
2023-02-19T01:58:29.302Z,101832.53
2023-02-19T02:01:15.562Z,101828.28
2023-02-19T02:04:01.529Z,101822.34
2023-02-19T02:06:48.058Z,101826.16
2023-02-19T02:09:51.800Z,101809.75
2023-02-19T02:12:39.116Z,101805.53
2023-02-19T02:15:25.114Z,101808.19
2023-02-19T02:18:12.609Z,101807.34
2023-02-19T02:21:03.177Z,101803.75
2023-02-19T02:23:52.645Z,101789.78
2023-02-19T02:26:44.599Z,101796.53
2023-02-19T02:29:49.529Z,101789.78
2023-02-19T02:32:38.850Z,101799.50
2023-02-19T02:35:25.188Z,101800.34
2023-02-19T02:38:11.888Z,101806.38
2023-02-19T02:40:57.627Z,101806.38
2023-02-19T02:43:43.937Z,101799.91
2023-02-19T02:46:31.310Z,101798.75
2023-02-19T02:49:20.754Z,101803.19
2023-02-19T02:52:27.673Z,101805.72
2023-02-19T02:55:12.653Z,101803.09
2023-02-19T02:57:58.377Z,101817.91
2023-02-19T03:01:02.486Z,101813.44
2023-02-19T03:03:48.992Z,101820.34
2023-02-19T03:06:36.520Z,101829.13
2023-02-19T03:09:23.352Z,101819.41
2023-02-19T03:12:27.833Z,101852.75
2023-02-19T03:15:31.713Z,101866.59
2023-02-19T03:18:35.409Z,101863.69
2023-02-19T03:21:22.360Z,101898.31
2023-02-19T03:24:27.387Z,101908.47
2023-02-19T03:27:13.550Z,101879.66
2023-02-19T03:30:04.890Z,101895.53
2023-02-19T03:32:52.219Z,101876.72
2023-02-19T03:35:39.186Z,101868.25
2023-02-19T03:38:27.674Z,101877.03
2023-02-19T03:41:16.768Z,101869.38
2023-02-19T03:44:06.900Z,101871.38
2023-02-19T03:46:53.230Z,101863.75
2023-02-19T03:49:42.327Z,101855.38
2023-02-19T03:52:31.269Z,101844.78
2023-02-19T03:55:17.935Z,101843.38
2023-02-19T03:58:06.094Z,101856.50
2023-02-19T04:00:54.119Z,101847.88
2023-02-19T04:03:41.445Z,101842.50
2023-02-19T04:06:28.029Z,101844.41
2023-02-19T04:09:14.215Z,101843.28
2023-02-19T04:12:02.579Z,101856.50
2023-02-19T04:14:51.557Z,101854.69
2023-02-19T04:17:38.673Z,101860.19
2023-02-19T04:20:24.744Z,101860.03
2023-02-19T04:23:10.826Z,101864.00
2023-02-19T04:25:57.508Z,101870.41
2023-02-19T04:28:44.145Z,101867.69
2023-02-19T04:31:31.601Z,101863.56
2023-02-19T04:34:17.395Z,101865.53
2023-02-19T04:37:03.355Z,101863.25
2023-02-19T04:39:49.248Z,101891.25
2023-02-19T04:42:35.169Z,101892.69
2023-02-19T04:45:21.043Z,101883.16
2023-02-19T04:48:08.526Z,101903.25
2023-02-19T04:50:54.639Z,101927.16
2023-02-19T04:53:40.500Z,101934.81
2023-02-19T04:56:26.293Z,101939.44
2023-02-19T04:59:12.079Z,101939.44
2023-02-19T05:01:58.364Z,101942.59
2023-02-19T05:04:45.377Z,101941.66
2023-02-19T05:07:31.208Z,101938.28
2023-02-19T05:10:17.007Z,101928.28
2023-02-19T05:13:02.717Z,101934.22
2023-02-19T05:15:55.225Z,101935.25
2023-02-19T05:18:41.494Z,101938.25
2023-02-19T05:21:28.511Z,101943.28
2023-02-19T05:24:14.230Z,101948.00
2023-02-19T05:27:00.284Z,101966.94
2023-02-19T05:29:46.270Z,101968.16
2023-02-19T05:32:32.036Z,101974.28
2023-02-19T05:35:17.910Z,101979.22
2023-02-19T05:38:05.832Z,101986.38
2023-02-19T05:40:52.008Z,101995.03
2023-02-19T05:43:38.336Z,101997.28
2023-02-19T05:46:25.009Z,102008.44
2023-02-19T05:49:10.762Z,102007.75
2023-02-19T05:51:56.527Z,102005.44
2023-02-19T05:54:43.731Z,102019.41
2023-02-19T05:57:29.885Z,102020.66
2023-02-19T06:00:16.822Z,102029.69
2023-02-19T06:03:02.974Z,102039.97
2023-02-19T06:05:48.781Z,102051.53
2023-02-19T06:08:34.770Z,102065.81
2023-02-19T06:11:21.884Z,102070.50
2023-02-19T06:14:08.000Z,102076.00
2023-02-19T06:16:54.152Z,102076.44
2023-02-19T06:19:39.887Z,102078.81
2023-02-19T06:22:25.664Z,102077.03
2023-02-19T06:25:12.727Z,102072.75
2023-02-19T06:28:00.077Z,102076.03
2023-02-19T06:30:45.939Z,102076.91
2023-02-19T06:33:31.761Z,102095.72
2023-02-19T06:36:18.307Z,102085.03
2023-02-19T06:39:04.792Z,102082.59
2023-02-19T06:41:50.554Z,102088.47
2023-02-19T06:44:37.793Z,102095.50
2023-02-19T06:47:25.420Z,102089.25
2023-02-19T06:50:11.542Z,102105.41
2023-02-19T06:52:57.374Z,102113.38
2023-02-19T06:55:43.147Z,102127.00
2023-02-19T06:58:29.366Z,102136.84
2023-02-19T07:01:16.482Z,102147.50
2023-02-19T07:04:02.145Z,102163.91
2023-02-19T07:06:47.951Z,102181.22
2023-02-19T07:09:33.700Z,102195.28
2023-02-19T07:12:19.376Z,102207.97
2023-02-19T07:15:05.486Z,102209.06
2023-02-19T07:17:52.564Z,102216.25
2023-02-19T07:20:38.483Z,102232.59
2023-02-19T07:23:24.672Z,102237.63
2023-02-19T07:26:10.497Z,102250.00
2023-02-19T07:28:56.408Z,102258.84
2023-02-19T07:31:42.281Z,102272.38
2023-02-19T07:34:29.380Z,102272.38
2023-02-19T07:37:15.445Z,102273.16
2023-02-19T07:40:01.163Z,102274.63
2023-02-19T07:42:46.882Z,102280.59
2023-02-19T07:45:32.756Z,102284.03
2023-02-19T07:48:19.039Z,102297.81
2023-02-19T07:51:06.617Z,102307.34
2023-02-19T07:53:52.908Z,102312.47
2023-02-19T07:56:38.927Z,102321.91
2023-02-19T07:59:24.945Z,102333.09
2023-02-19T08:02:29.914Z,102333.78
2023-02-19T08:05:16.115Z,102341.53
2023-02-19T08:08:03.128Z,102342.16
2023-02-19T08:11:06.593Z,102345.72
2023-02-19T08:13:52.846Z,102355.06
2023-02-19T08:16:43.245Z,102361.09
2023-02-19T08:19:29.473Z,102367.84
2023-02-19T08:22:16.239Z,102377.22
2023-02-19T08:25:03.636Z,102384.06
2023-02-19T08:27:49.380Z,102390.25
2023-02-19T08:30:35.478Z,102396.94
2023-02-19T08:33:22.110Z,102391.50
2023-02-19T08:36:08.544Z,102377.25
2023-02-19T08:38:54.849Z,102370.84
2023-02-19T08:41:42.310Z,102378.34
2023-02-19T08:44:28.008Z,102388.56
2023-02-19T08:47:14.872Z,102404.09
2023-02-19T08:50:00.566Z,102402.06
2023-02-19T08:52:46.332Z,102405.50
2023-02-19T08:55:32.216Z,102408.75
2023-02-19T08:58:19.763Z,102405.16
2023-02-19T09:01:09.143Z,102406.56
2023-02-19T09:03:55.227Z,102406.25
2023-02-19T09:06:41.106Z,102412.09
2023-02-19T09:09:26.830Z,102424.09
2023-02-19T09:12:13.110Z,102429.06
2023-02-19T09:15:00.413Z,102431.44
2023-02-19T09:17:46.118Z,102441.56
2023-02-19T09:20:31.865Z,102440.31
2023-02-19T09:23:17.591Z,102440.84
2023-02-19T09:26:06.637Z,102439.75
2023-02-19T09:28:52.450Z,102437.34
2023-02-19T09:31:39.605Z,102435.88
2023-02-19T09:34:26.079Z,102426.81
2023-02-19T09:37:11.842Z,102422.13
2023-02-19T09:39:57.616Z,102422.63
2023-02-19T09:42:43.635Z,102413.53
2023-02-19T09:45:29.666Z,102405.44
2023-02-19T09:48:17.034Z,102383.19
2023-02-19T09:51:03.052Z,102376.59
2023-02-19T09:53:50.038Z,102371.75
2023-02-19T09:56:35.848Z,102365.34
2023-02-19T09:59:22.283Z,102353.19
2023-02-19T10:02:12.354Z,102371.94
2023-02-19T10:04:59.769Z,102354.88
2023-02-19T10:07:46.400Z,102333.09
2023-02-19T10:10:33.525Z,102321.84
2023-02-19T10:13:20.534Z,102319.00
2023-02-19T10:16:06.964Z,102319.75
2023-02-19T10:18:53.192Z,102312.97
2023-02-19T10:21:40.325Z,102300.72
2023-02-19T10:24:26.776Z,102281.84
2023-02-19T10:27:13.184Z,102270.72
2023-02-19T10:29:58.986Z,102264.09
2023-02-19T10:32:46.812Z,102254.38
2023-02-19T10:35:32.617Z,102236.53
2023-02-19T10:38:19.659Z,102226.44
2023-02-19T10:41:06.521Z,102226.22
2023-02-19T10:43:53.700Z,102227.63
2023-02-19T10:46:42.450Z,102212.22
2023-02-19T10:49:30.318Z,102197.94
2023-02-19T10:52:18.377Z,102187.59
2023-02-19T10:55:21.487Z,102187.19
2023-02-19T10:58:24.011Z,102161.13
2023-02-19T11:01:11.105Z,102126.81
2023-02-19T11:04:17.066Z,102099.34
2023-02-19T11:07:08.852Z,102058.13
2023-02-19T11:09:54.899Z,102020.63
2023-02-19T11:12:41.996Z,101992.25
2023-02-19T11:15:29.424Z,101958.53
2023-02-19T11:18:16.849Z,101944.13
2023-02-19T11:21:03.064Z,101924.63
2023-02-19T11:23:49.954Z,101917.03
2023-02-19T11:26:38.056Z,101893.00
2023-02-19T11:29:28.506Z,101843.28
2023-02-19T11:32:22.360Z,101831.44
2023-02-19T11:35:17.483Z,101784.34
2023-02-19T11:38:03.552Z,101697.50
2023-02-19T11:40:52.253Z,101623.28
2023-02-19T11:43:41.426Z,101576.31
2023-02-19T11:46:29.686Z,101543.78
2023-02-19T11:49:18.502Z,101526.94
2023-02-19T11:52:11.801Z,101507.72
2023-02-19T11:55:00.677Z,101484.59
2023-02-19T11:57:47.297Z,101498.59
2023-02-19T12:00:34.026Z,101493.16
2023-02-19T12:03:27.592Z,101567.16
2023-02-19T12:06:16.912Z,101576.38
2023-02-19T12:09:10.275Z,101566.13
2023-02-19T12:12:08.368Z,101563.44
2023-02-19T12:15:11.588Z,101569.28
2023-02-19T12:18:27.958Z,101582.78
2023-02-19T12:21:21.474Z,101580.78
2023-02-19T12:24:12.696Z,101586.53
2023-02-19T12:27:01.903Z,101571.78
2023-02-19T12:29:59.095Z,101577.34
2023-02-19T12:32:48.428Z,101582.34
2023-02-19T12:35:48.093Z,101589.63
2023-02-19T12:38:37.889Z,101589.56
2023-02-19T12:41:29.282Z,101590.09
2023-02-19T12:44:16.770Z,101590.53
2023-02-19T12:47:02.702Z,101602.56
2023-02-19T12:49:49.399Z,101610.38
2023-02-19T12:52:36.639Z,101617.53
2023-02-19T12:55:25.465Z,101619.19
2023-02-19T12:58:12.423Z,101624.31
2023-02-19T13:00:59.574Z,101625.91
2023-02-19T13:03:49.185Z,101629.91
2023-02-19T13:06:36.317Z,101629.66
2023-02-19T13:09:22.567Z,101644.09
2023-02-19T13:12:13.067Z,101643.69
2023-02-19T13:14:59.790Z,101657.06
2023-02-19T13:17:46.072Z,101651.19
2023-02-19T13:20:32.173Z,101661.84
2023-02-19T13:23:36.530Z,101658.75
2023-02-19T13:26:30.893Z,101646.91
2023-02-19T13:29:27.806Z,101637.00
2023-02-19T13:32:21.217Z,101634.22
2023-02-19T13:35:13.191Z,101642.13
2023-02-19T13:38:00.968Z,101634.03
2023-02-19T13:40:53.916Z,101626.88
2023-02-19T13:43:39.909Z,101619.69
2023-02-19T13:46:27.530Z,101610.63
2023-02-19T13:49:24.442Z,101609.91
2023-02-19T13:52:33.081Z,101603.34
2023-02-19T13:55:41.294Z,101606.88
2023-02-19T13:58:51.964Z,101607.16
2023-02-19T14:01:52.806Z,101632.28
2023-02-19T14:04:45.097Z,101622.38
2023-02-19T14:07:46.186Z,101613.41
2023-02-19T14:11:02.120Z,101613.34
2023-02-19T14:14:10.932Z,101628.72
2023-02-19T14:17:04.527Z,101634.28
2023-02-19T14:19:55.733Z,101617.97
2023-02-19T14:22:50.044Z,101629.09
2023-02-19T14:25:46.685Z,101646.59
2023-02-19T14:28:35.429Z,101630.03
2023-02-19T14:31:30.547Z,101638.66
2023-02-19T14:34:19.474Z,101626.03
2023-02-19T14:37:09.970Z,101636.69
2023-02-19T14:39:57.626Z,101653.97
2023-02-19T14:42:43.413Z,101652.56
2023-02-19T14:45:29.206Z,101655.22
2023-02-19T14:48:17.667Z,101657.56
2023-02-19T14:51:04.695Z,101642.63
2023-02-19T14:53:52.254Z,101633.72
2023-02-19T14:56:38.308Z,101623.94
2023-02-19T14:59:25.333Z,101624.69
2023-02-19T15:02:15.961Z,101628.53
2023-02-19T15:05:01.861Z,101623.34
2023-02-19T15:07:47.575Z,101618.66
2023-02-19T15:10:35.272Z,101619.00
2023-02-19T15:13:22.741Z,101619.00
2023-02-19T15:16:08.734Z,101610.81
2023-02-19T15:18:55.109Z,101604.75
2023-02-19T15:21:41.089Z,101603.50
2023-02-19T15:24:28.172Z,101597.84
2023-02-19T15:27:17.806Z,101608.06
2023-02-19T15:30:04.340Z,101610.19
2023-02-19T15:32:54.349Z,101607.63
2023-02-19T15:35:40.093Z,101599.50
2023-02-19T15:38:26.376Z,101608.25
2023-02-19T15:41:16.599Z,101602.78
2023-02-19T15:44:12.642Z,101606.44
2023-02-19T15:46:58.455Z,101607.72
2023-02-19T15:49:46.679Z,101613.16
2023-02-19T15:52:34.248Z,101615.19
2023-02-19T15:55:22.256Z,101607.59
2023-02-19T15:58:09.476Z,101601.59
2023-02-19T16:00:57.770Z,101609.13
2023-02-19T16:03:43.548Z,101600.66
2023-02-19T16:06:30.463Z,101593.50
2023-02-19T16:09:17.871Z,101601.13
2023-02-19T16:12:04.695Z,101606.31
2023-02-19T16:14:51.050Z,101620.59
2023-02-19T16:17:38.228Z,101628.16
2023-02-19T16:20:25.513Z,101623.75
2023-02-19T16:23:12.286Z,101618.31
2023-02-19T16:25:59.048Z,101620.09
2023-02-19T16:28:45.129Z,101616.91
2023-02-19T16:31:31.475Z,101629.13
2023-02-19T16:34:19.463Z,101636.06
2023-02-19T16:37:06.063Z,101637.50
2023-02-19T16:39:53.768Z,101638.09
2023-02-19T16:42:58.185Z,101640.53
2023-02-19T16:45:44.392Z,101643.84
2023-02-19T16:48:30.447Z,101643.59
2023-02-19T16:51:18.244Z,101653.78
2023-02-19T16:54:04.500Z,101665.84
2023-02-19T16:56:50.339Z,101676.47
2023-02-19T16:59:36.202Z,101682.03
2023-02-19T17:02:22.533Z,101690.69
2023-02-19T17:05:08.465Z,101704.31
2023-02-19T17:07:55.856Z,101710.97
2023-02-19T17:10:41.818Z,101714.91
2023-02-19T17:13:27.711Z,101727.66
2023-02-19T17:16:14.718Z,101733.38
2023-02-19T17:19:00.814Z,101739.94
2023-02-19T17:21:46.996Z,101747.34
2023-02-19T17:24:34.403Z,101746.94
2023-02-19T17:27:20.135Z,101752.53
2023-02-19T17:30:07.409Z,101765.09
2023-02-19T17:32:53.069Z,101769.88
2023-02-19T17:35:39.035Z,101784.97
2023-02-19T17:38:25.096Z,101794.91
2023-02-19T17:41:12.231Z,101815.34
2023-02-19T17:43:58.257Z,101822.72
2023-02-19T17:46:44.012Z,101818.53
2023-02-19T17:49:29.837Z,101824.81
2023-02-19T17:52:17.557Z,101835.50
2023-02-19T17:55:03.265Z,101849.59
2023-02-19T17:57:50.543Z,101861.97
2023-02-19T18:00:37.035Z,101866.56
2023-02-19T18:03:23.013Z,101881.50
2023-02-19T18:06:08.836Z,101890.44
2023-02-19T18:08:54.877Z,101911.66
2023-02-19T18:11:40.569Z,101920.63
2023-02-19T18:14:27.680Z,101925.13
2023-02-19T18:17:13.647Z,101936.81
2023-02-19T18:19:59.488Z,101944.75
2023-02-19T18:22:45.415Z,101958.03
2023-02-19T18:25:31.159Z,101967.78
2023-02-19T18:28:17.162Z,101973.97
2023-02-19T18:31:04.522Z,101988.91
2023-02-19T18:33:50.749Z,101988.19
2023-02-19T18:36:36.491Z,102000.56
2023-02-19T18:39:22.339Z,102004.41
2023-02-19T18:42:08.093Z,102021.94
2023-02-19T18:44:54.246Z,102028.38
2023-02-19T18:47:41.500Z,102027.66
2023-02-19T18:50:27.324Z,102032.31
2023-02-19T18:53:14.891Z,102046.47
2023-02-19T18:56:01.928Z,102061.28
2023-02-19T18:58:50.312Z,102059.63
2023-02-19T19:01:36.557Z,102071.78
2023-02-19T19:04:23.959Z,102084.97
2023-02-19T19:07:10.289Z,102094.56
2023-02-19T19:09:56.435Z,102094.63
2023-02-19T19:12:42.585Z,102101.59
2023-02-19T19:15:29.992Z,102110.28
2023-02-19T19:18:15.622Z,102112.81
2023-02-19T19:21:03.432Z,102118.94
2023-02-19T19:23:49.519Z,102118.09
2023-02-19T19:26:35.574Z,102117.09
2023-02-19T19:29:22.311Z,102109.97
2023-02-19T19:32:08.880Z,102121.25
2023-02-19T19:34:55.207Z,102132.56
2023-02-19T19:37:42.510Z,102129.78
2023-02-19T19:40:28.318Z,102132.34
2023-02-19T19:43:14.370Z,102133.09
2023-02-19T19:46:00.483Z,102133.00
2023-02-19T19:48:46.447Z,102128.44
2023-02-19T19:51:32.677Z,102119.47
2023-02-19T19:54:19.739Z,102118.47
2023-02-19T19:57:05.402Z,102121.88
2023-02-19T19:59:51.856Z,102118.31
2023-02-19T20:02:37.961Z,102103.41
2023-02-19T20:05:24.151Z,102106.09
2023-02-19T20:08:09.998Z,102105.09
2023-02-19T20:10:57.189Z,102107.47
2023-02-19T20:13:43.132Z,102110.94
2023-02-19T20:16:29.437Z,102119.69
2023-02-19T20:19:15.274Z,102120.44
2023-02-19T20:22:01.064Z,102116.91
2023-02-19T20:24:50.096Z,102118.59
2023-02-19T20:27:37.488Z,102120.28
2023-02-19T20:30:24.130Z,102122.84
2023-02-19T20:33:10.326Z,102120.16
2023-02-19T20:35:56.894Z,102118.44
2023-02-19T20:38:43.528Z,102109.63
2023-02-19T20:41:29.939Z,102116.59
2023-02-19T20:44:17.374Z,102121.78
2023-02-19T20:47:03.578Z,102108.69
2023-02-19T20:49:51.515Z,102123.44
2023-02-19T20:52:37.830Z,102123.28
2023-02-19T20:55:25.858Z,102130.94
2023-02-19T20:58:11.623Z,102129.16
2023-02-19T21:00:58.485Z,102128.22
2023-02-19T21:03:44.217Z,102126.22
2023-02-19T21:06:30.120Z,102136.53
2023-02-19T21:09:15.809Z,102125.00
2023-02-19T21:12:01.769Z,102129.19
2023-02-19T21:14:48.094Z,102133.44
2023-02-19T21:17:35.346Z,102127.16
2023-02-19T21:20:21.548Z,102124.44
2023-02-19T21:23:07.751Z,102124.44
2023-02-19T21:25:54.656Z,102129.63
2023-02-19T21:28:41.345Z,102136.56
2023-02-19T21:31:35.988Z,102138.94
2023-02-19T21:34:26.337Z,102136.94
2023-02-19T21:37:15.447Z,102142.75
2023-02-19T21:40:01.431Z,102145.31
2023-02-19T21:42:52.572Z,102148.56
2023-02-19T21:45:43.572Z,102148.56
2023-02-19T21:48:29.982Z,102148.56
2023-02-19T21:51:25.430Z,102158.16
2023-02-19T21:54:14.475Z,102155.44
2023-02-19T21:57:04.949Z,102152.88
2023-02-19T21:59:54.366Z,102146.69
2023-02-19T22:02:41.831Z,102155.50
2023-02-19T22:05:27.964Z,102159.06
2023-02-19T22:08:17.206Z,102160.94
2023-02-19T22:11:06.096Z,102159.25
2023-02-19T22:13:52.424Z,102159.41
2023-02-19T22:16:41.229Z,102165.63
2023-02-19T22:19:27.094Z,102166.56
2023-02-19T22:22:16.996Z,102164.09
2023-02-19T22:25:04.354Z,102149.22
2023-02-19T22:27:50.161Z,102144.81
2023-02-19T22:30:36.102Z,102147.44
2023-02-19T22:33:23.312Z,102142.03
2023-02-19T22:36:14.287Z,102141.25
2023-02-19T22:39:00.451Z,102135.00
2023-02-19T22:41:47.742Z,102140.16
2023-02-19T22:44:34.311Z,102141.75
2023-02-19T22:47:20.126Z,102152.28
2023-02-19T22:50:06.705Z,102167.91
2023-02-19T22:52:54.778Z,102165.19
2023-02-19T22:55:40.792Z,102155.50
2023-02-19T22:58:28.009Z,102156.97
2023-02-19T23:01:14.292Z,102162.03
2023-02-19T23:04:01.007Z,102155.84
2023-02-19T23:06:46.933Z,102152.03
2023-02-19T23:09:32.843Z,102157.97
2023-02-19T23:12:18.695Z,102157.75
2023-02-19T23:15:06.488Z,102163.78
2023-02-19T23:17:52.195Z,102171.53
2023-02-19T23:20:38.053Z,102177.41
2023-02-19T23:23:23.711Z,102183.28
2023-02-19T23:26:09.845Z,102178.94
2023-02-19T23:28:56.000Z,102188.47
2023-02-19T23:31:43.119Z,102188.31
2023-02-19T23:34:28.992Z,102185.53
2023-02-19T23:37:14.947Z,102189.81
2023-02-19T23:40:00.686Z,102189.63
2023-02-19T23:42:46.439Z,102199.25
2023-02-19T23:45:32.208Z,102190.41
2023-02-19T23:48:19.285Z,102196.34
2023-02-19T23:51:05.129Z,102191.94
2023-02-19T23:53:50.932Z,102205.78
2023-02-19T23:56:37.406Z,102205.03
2023-02-19T23:59:23.423Z,102196.91
